createdAt,value
2023-01-25T00:02:20.034Z,14.70
2023-01-25T00:04:48.382Z,15.33
2023-01-25T00:07:16.294Z,14.20
2023-01-25T00:09:44.439Z,13.40
2023-01-25T00:12:13.254Z,14.17
2023-01-25T00:14:43.152Z,14.30
2023-01-25T00:17:12.583Z,14.33
2023-01-25T00:19:40.610Z,13.00
2023-01-25T00:22:08.747Z,13.77
2023-01-25T00:24:37.561Z,13.23
2023-01-25T00:27:05.529Z,11.77
2023-01-25T00:29:34.237Z,13.90
2023-01-25T00:32:38.526Z,13.30
2023-01-25T00:35:12.638Z,12.10
2023-01-25T00:37:44.483Z,12.77
2023-01-25T00:40:14.499Z,13.00
2023-01-25T00:42:43.814Z,13.80
2023-01-25T00:45:13.602Z,12.90
2023-01-25T00:47:43.665Z,12.60
2023-01-25T00:50:12.669Z,13.07
2023-01-25T00:52:42.039Z,12.57
2023-01-25T00:55:10.909Z,11.97
2023-01-25T00:57:38.945Z,12.57
2023-01-25T01:00:08.456Z,14.53
2023-01-25T01:02:36.768Z,12.67
2023-01-25T01:05:07.372Z,13.37
2023-01-25T01:07:36.135Z,10.73
2023-01-25T01:10:04.947Z,12.30
2023-01-25T01:12:33.263Z,13.47
2023-01-25T01:15:01.595Z,13.60
2023-01-25T01:17:29.771Z,12.47
2023-01-25T01:19:57.770Z,12.00
2023-01-25T01:22:27.561Z,11.67
2023-01-25T01:24:55.571Z,12.50
2023-01-25T01:27:24.171Z,13.33
2023-01-25T01:29:52.425Z,12.23
2023-01-25T01:32:21.303Z,13.13
2023-01-25T01:34:52.059Z,13.53
2023-01-25T01:37:20.609Z,11.70
2023-01-25T01:39:50.021Z,14.23
2023-01-25T01:42:18.090Z,9.40
2023-01-25T01:44:49.132Z,12.23
2023-01-25T01:47:23.228Z,11.40
2023-01-25T01:49:58.954Z,11.47
2023-01-25T01:52:34.668Z,10.63
2023-01-25T01:55:12.811Z,11.10
2023-01-25T01:57:49.301Z,10.60
2023-01-25T02:00:22.378Z,10.67
2023-01-25T02:02:52.595Z,10.80
2023-01-25T02:05:27.306Z,10.23
2023-01-25T02:07:57.050Z,9.53
2023-01-25T02:10:29.572Z,11.00
2023-01-25T02:12:59.398Z,10.60
2023-01-25T02:15:30.053Z,10.27
2023-01-25T02:17:58.844Z,11.30
2023-01-25T02:20:37.530Z,11.70
2023-01-25T02:23:12.715Z,10.23
2023-01-25T02:25:44.957Z,10.87
2023-01-25T02:28:17.750Z,9.63
2023-01-25T02:30:47.048Z,10.50
2023-01-25T02:33:18.464Z,10.47
2023-01-25T02:35:50.334Z,10.70
2023-01-25T02:38:21.469Z,9.73
2023-01-25T02:41:02.473Z,12.87
2023-01-25T02:43:35.562Z,12.13
2023-01-25T02:46:15.372Z,11.70
2023-01-25T02:48:46.601Z,12.00
2023-01-25T02:51:15.291Z,12.27
2023-01-25T02:53:43.336Z,12.33
2023-01-25T02:56:12.305Z,12.20
2023-01-25T02:58:39.930Z,11.40
2023-01-25T03:01:07.637Z,12.43
2023-01-25T03:03:35.362Z,11.50
2023-01-25T03:06:03.149Z,12.13
2023-01-25T03:08:31.080Z,11.70
2023-01-25T03:10:59.567Z,13.10
2023-01-25T03:13:30.937Z,11.70
2023-01-25T03:16:01.435Z,12.30
2023-01-25T03:18:29.461Z,12.97
2023-01-25T03:20:57.328Z,11.93
2023-01-25T03:23:25.064Z,14.20
2023-01-25T03:25:54.311Z,12.20
2023-01-25T03:28:22.035Z,11.40
2023-01-25T03:30:55.112Z,10.53
2023-01-25T03:33:22.864Z,12.37
2023-01-25T03:35:53.279Z,11.53
2023-01-25T03:38:21.631Z,13.33
2023-01-25T03:40:49.366Z,12.93
2023-01-25T03:43:17.480Z,12.00
2023-01-25T03:45:53.684Z,11.33
2023-01-25T03:48:23.555Z,12.20
2023-01-25T03:50:52.687Z,12.93
2023-01-25T03:53:29.163Z,13.70
2023-01-25T03:56:04.519Z,13.00
2023-01-25T03:58:32.727Z,13.13
2023-01-25T04:01:01.899Z,13.17
2023-01-25T04:03:31.628Z,13.30
2023-01-25T04:06:01.178Z,11.57
2023-01-25T04:08:30.789Z,10.40
2023-01-25T04:11:03.108Z,12.30
2023-01-25T04:13:30.748Z,11.67
2023-01-25T04:15:58.743Z,12.37
2023-01-25T04:18:47.973Z,11.03
2023-01-25T04:21:15.886Z,12.87
2023-01-25T04:23:44.099Z,13.20
2023-01-25T04:26:12.646Z,13.40
2023-01-25T04:28:41.244Z,14.53
2023-01-25T04:31:09.012Z,15.27
2023-01-25T04:33:41.003Z,13.93
2023-01-25T04:36:11.198Z,14.83
2023-01-25T04:38:39.194Z,13.87
2023-01-25T04:41:07.265Z,12.67
2023-01-25T04:43:35.378Z,15.03
2023-01-25T04:46:08.027Z,13.17
2023-01-25T04:48:35.765Z,10.63
2023-01-25T04:51:07.005Z,11.80
2023-01-25T04:53:36.919Z,10.83
2023-01-25T04:56:07.779Z,11.70
2023-01-25T04:58:44.451Z,11.90
2023-01-25T05:01:13.331Z,11.50
2023-01-25T05:03:41.218Z,13.53
2023-01-25T05:06:17.037Z,11.73
2023-01-25T05:08:46.499Z,11.43
2023-01-25T05:11:14.330Z,10.70
2023-01-25T05:13:51.915Z,10.00
2023-01-25T05:16:25.605Z,9.80
2023-01-25T05:18:53.281Z,9.90
2023-01-25T05:21:44.638Z,10.37
2023-01-25T05:24:15.849Z,11.37
2023-01-25T05:27:03.650Z,11.10
2023-01-25T05:29:49.604Z,9.90
2023-01-25T05:32:20.196Z,8.83
2023-01-25T05:34:48.851Z,9.30
2023-01-25T05:37:19.766Z,8.80
2023-01-25T05:39:51.339Z,10.40
2023-01-25T05:42:20.177Z,11.00
2023-01-25T05:44:48.594Z,10.93
2023-01-25T05:47:18.614Z,10.67
2023-01-25T05:49:46.310Z,10.40
2023-01-25T05:52:21.683Z,10.13
2023-01-25T05:54:51.096Z,11.00
2023-01-25T05:57:18.969Z,10.90
2023-01-25T05:59:46.817Z,11.10
2023-01-25T06:02:19.075Z,9.23
2023-01-25T06:04:47.050Z,9.20
2023-01-25T06:07:15.332Z,10.50
2023-01-25T06:09:43.447Z,11.40
2023-01-25T06:12:12.520Z,10.67
2023-01-25T06:14:40.196Z,9.70
2023-01-25T06:17:08.038Z,8.43
2023-01-25T06:19:57.063Z,8.97
2023-01-25T06:22:35.443Z,8.87
2023-01-25T06:25:03.058Z,8.70
2023-01-25T06:27:32.395Z,8.77
2023-01-25T06:30:00.122Z,10.10
2023-01-25T06:32:33.107Z,9.67
2023-01-25T06:35:00.686Z,8.73
2023-01-25T06:37:28.465Z,8.93
2023-01-25T06:39:56.058Z,8.40
2023-01-25T06:42:25.257Z,9.90
2023-01-25T06:44:54.222Z,9.47
2023-01-25T06:47:21.879Z,8.17
2023-01-25T06:49:49.506Z,10.07
2023-01-25T06:52:17.103Z,8.87
2023-01-25T06:54:44.691Z,8.90
2023-01-25T06:57:12.898Z,9.10
2023-01-25T06:59:40.523Z,9.00
2023-01-25T07:02:11.396Z,7.13
2023-01-25T07:04:38.996Z,8.50
2023-01-25T07:07:08.672Z,8.47
2023-01-25T07:09:36.598Z,7.73
2023-01-25T07:12:05.399Z,8.50
2023-01-25T07:14:33.255Z,8.90
2023-01-25T07:17:02.932Z,8.60
2023-01-25T07:19:32.793Z,9.37
2023-01-25T07:22:00.433Z,9.57
2023-01-25T07:24:29.628Z,9.10
2023-01-25T07:26:57.245Z,8.70
2023-01-25T07:29:25.014Z,8.03
2023-01-25T07:31:52.718Z,8.43
2023-01-25T07:34:20.481Z,8.30
2023-01-25T07:36:49.538Z,8.10
2023-01-25T07:39:17.260Z,8.80
2023-01-25T07:41:44.870Z,9.17
2023-01-25T07:44:14.295Z,10.43
2023-01-25T07:46:47.924Z,7.87
2023-01-25T07:49:15.780Z,8.73
2023-01-25T07:51:43.378Z,7.73
2023-01-25T07:54:12.982Z,8.70
2023-01-25T07:56:40.917Z,9.00
2023-01-25T07:59:10.494Z,8.63
2023-01-25T08:01:38.712Z,8.67
2023-01-25T08:04:06.618Z,8.33
2023-01-25T08:06:38.965Z,9.17
2023-01-25T08:09:09.672Z,7.97
2023-01-25T08:11:38.759Z,8.23
2023-01-25T08:14:06.374Z,8.80
2023-01-25T08:16:34.257Z,9.50
2023-01-25T08:19:03.878Z,9.57
2023-01-25T08:21:33.966Z,8.20
2023-01-25T08:24:03.527Z,9.20
2023-01-25T08:26:31.159Z,8.70
2023-01-25T08:29:00.202Z,8.47
2023-01-25T08:31:30.118Z,7.00
2023-01-25T08:33:58.723Z,7.93
2023-01-25T08:36:27.893Z,7.50
2023-01-25T08:38:58.452Z,9.23
2023-01-25T08:41:27.088Z,8.97
2023-01-25T08:43:56.159Z,7.93
2023-01-25T08:46:30.151Z,9.70
2023-01-25T08:48:59.179Z,9.50
2023-01-25T08:51:27.468Z,9.90
2023-01-25T08:53:55.555Z,8.87
2023-01-25T08:56:23.248Z,8.70
2023-01-25T08:58:51.571Z,9.80
2023-01-25T09:01:21.032Z,10.50
2023-01-25T09:03:51.718Z,8.73
2023-01-25T09:06:20.773Z,8.90
2023-01-25T09:08:49.011Z,9.30
2023-01-25T09:11:18.268Z,9.07
2023-01-25T09:13:46.071Z,10.17
2023-01-25T09:16:16.304Z,10.70
2023-01-25T09:18:45.562Z,8.20
2023-01-25T09:21:16.020Z,9.57
2023-01-25T09:23:51.338Z,9.83
2023-01-25T09:26:25.639Z,7.70
2023-01-25T09:28:55.101Z,7.97
2023-01-25T09:31:24.820Z,9.37
2023-01-25T09:34:02.964Z,8.10
2023-01-25T09:36:31.933Z,7.67
2023-01-25T09:38:59.880Z,9.67
2023-01-25T09:42:03.430Z,10.40
2023-01-25T09:44:52.364Z,9.70
2023-01-25T09:47:26.998Z,10.00
2023-01-25T09:50:20.665Z,10.87
2023-01-25T09:53:06.655Z,8.60
2023-01-25T09:55:34.969Z,8.73
2023-01-25T09:58:04.109Z,8.80
2023-01-25T10:00:37.041Z,10.00
2023-01-25T10:03:12.142Z,8.90
2023-01-25T10:05:45.848Z,9.33
2023-01-25T10:08:25.815Z,9.27
2023-01-25T10:10:59.708Z,8.20
2023-01-25T10:13:31.782Z,10.20
2023-01-25T10:16:06.483Z,9.87
2023-01-25T10:18:41.284Z,9.93
2023-01-25T10:21:14.054Z,9.97
2023-01-25T10:24:11.373Z,10.30
2023-01-25T10:26:43.943Z,10.97
2023-01-25T10:29:16.467Z,9.87
2023-01-25T10:31:49.051Z,12.77
2023-01-25T10:34:21.103Z,11.80
2023-01-25T10:36:53.348Z,9.80
2023-01-25T10:39:22.859Z,11.30
2023-01-25T10:41:55.854Z,13.00
2023-01-25T10:44:26.732Z,11.07
2023-01-25T10:47:00.662Z,12.07
2023-01-25T10:49:41.087Z,11.73
2023-01-25T10:52:15.419Z,13.17
2023-01-25T10:54:44.613Z,13.90
2023-01-25T10:57:16.840Z,12.30
2023-01-25T10:59:47.858Z,13.63
2023-01-25T11:02:38.033Z,13.03
2023-01-25T11:05:31.104Z,12.93
2023-01-25T11:07:59.926Z,12.03
2023-01-25T11:10:32.046Z,12.83
2023-01-25T11:13:23.079Z,12.93
2023-01-25T11:15:52.737Z,12.87
2023-01-25T11:18:24.785Z,11.40
2023-01-25T11:21:07.822Z,13.07
2023-01-25T11:23:35.637Z,12.40
2023-01-25T11:26:15.139Z,11.93
2023-01-25T11:28:44.373Z,11.50
2023-01-25T11:31:14.214Z,11.80
2023-01-25T11:33:42.333Z,10.50
2023-01-25T11:36:23.572Z,10.33
2023-01-25T11:39:09.254Z,10.10
2023-01-25T11:41:53.957Z,9.63
2023-01-25T11:44:45.047Z,12.67
2023-01-25T11:47:23.341Z,12.27
2023-01-25T11:50:00.974Z,10.57
2023-01-25T11:52:37.690Z,12.00
2023-01-25T11:55:20.429Z,11.80
2023-01-25T11:58:00.983Z,10.40
2023-01-25T12:00:42.685Z,14.00
2023-01-25T12:03:28.417Z,14.00
2023-01-25T12:06:03.745Z,13.70
2023-01-25T12:09:03.860Z,14.90
2023-01-25T12:11:47.495Z,13.07
2023-01-25T12:14:32.077Z,13.97
2023-01-25T12:17:22.968Z,14.07
2023-01-25T12:20:31.444Z,16.73
2023-01-25T12:23:22.033Z,12.67
2023-01-25T12:26:00.914Z,14.03
2023-01-25T12:28:34.171Z,14.40
2023-01-25T12:31:08.805Z,14.50
2023-01-25T12:33:41.861Z,15.00
2023-01-25T12:36:15.731Z,15.10
2023-01-25T12:38:49.194Z,13.60
2023-01-25T12:41:27.488Z,13.10
2023-01-25T12:44:02.280Z,12.63
2023-01-25T12:46:38.374Z,13.43
2023-01-25T12:49:16.485Z,12.93
2023-01-25T12:51:46.233Z,17.10
2023-01-25T12:54:20.528Z,16.10
2023-01-25T12:56:58.243Z,17.77
2023-01-25T12:59:34.628Z,17.53
2023-01-25T13:02:19.397Z,15.70
2023-01-25T13:05:00.594Z,19.80
2023-01-25T13:07:34.704Z,18.93
2023-01-25T13:10:06.757Z,16.03
2023-01-25T13:12:53.150Z,16.97
2023-01-25T13:15:40.820Z,17.93
2023-01-25T13:18:39.445Z,19.77
2023-01-25T13:21:12.327Z,16.30
2023-01-25T13:23:47.009Z,15.50
2023-01-25T13:26:37.875Z,17.63
2023-01-25T13:29:05.545Z,17.33
2023-01-25T13:31:51.808Z,19.30
2023-01-25T13:34:52.209Z,17.90
2023-01-25T13:37:23.619Z,18.70
2023-01-25T13:39:53.253Z,18.13
2023-01-25T13:42:23.642Z,17.33
2023-01-25T13:44:54.184Z,16.00
2023-01-25T13:47:23.938Z,16.20
2023-01-25T13:49:58.253Z,17.23
2023-01-25T13:52:28.182Z,19.20
2023-01-25T13:54:57.490Z,18.70
2023-01-25T13:57:27.127Z,17.60
2023-01-25T14:00:10.087Z,18.47
2023-01-25T14:02:40.688Z,17.60
2023-01-25T14:05:18.930Z,17.70
2023-01-25T14:07:48.730Z,17.30
2023-01-25T14:10:23.328Z,15.10
2023-01-25T14:12:52.607Z,16.83
2023-01-25T14:15:23.757Z,18.53
2023-01-25T14:18:14.586Z,20.00
2023-01-25T14:20:42.545Z,18.37
2023-01-25T14:23:24.657Z,17.47
2023-01-25T14:25:53.890Z,19.40
2023-01-25T14:28:22.648Z,19.47
2023-01-25T14:30:55.142Z,18.23
2023-01-25T14:33:26.222Z,18.67
2023-01-25T14:36:00.032Z,15.77
2023-01-25T14:38:35.185Z,17.40
2023-01-25T14:41:08.960Z,14.53
2023-01-25T14:43:38.319Z,16.83
2023-01-25T14:46:26.724Z,15.67
2023-01-25T14:49:17.801Z,14.70
2023-01-25T14:51:47.761Z,15.97
2023-01-25T14:54:20.807Z,14.60
2023-01-25T14:56:51.583Z,14.70
2023-01-25T14:59:26.975Z,13.93
2023-01-25T15:01:57.027Z,13.50
2023-01-25T15:04:24.896Z,13.50
2023-01-25T15:06:54.637Z,14.73
2023-01-25T15:09:42.277Z,13.70
2023-01-25T15:12:34.444Z,13.80
2023-01-25T15:15:02.768Z,15.30
2023-01-25T15:17:41.294Z,14.73
2023-01-25T15:20:28.220Z,13.60
2023-01-25T15:22:57.426Z,14.97
2023-01-25T15:25:26.464Z,14.70
2023-01-25T15:27:54.671Z,14.37
2023-01-25T15:30:22.332Z,14.10
2023-01-25T15:32:50.425Z,15.23
2023-01-25T15:35:19.701Z,14.50
2023-01-25T15:37:49.265Z,15.27
2023-01-25T15:40:18.086Z,14.87
2023-01-25T15:42:47.283Z,14.37
2023-01-25T15:45:14.914Z,13.70
2023-01-25T15:47:42.579Z,13.37
2023-01-25T15:50:18.649Z,15.37
2023-01-25T15:52:46.419Z,14.77
2023-01-25T15:55:15.212Z,16.57
2023-01-25T15:57:44.575Z,16.17
2023-01-25T16:00:19.470Z,18.23
2023-01-25T16:02:47.252Z,28.30
2023-01-25T16:05:15.046Z,32.70
2023-01-25T16:07:45.175Z,18.93
2023-01-25T16:10:24.821Z,22.60
2023-01-25T16:12:52.613Z,25.87
2023-01-25T16:15:21.568Z,21.73
2023-01-25T16:17:49.192Z,19.53
2023-01-25T16:20:19.115Z,14.90
2023-01-25T16:22:47.279Z,15.77
2023-01-25T16:25:15.146Z,14.70
2023-01-25T16:27:42.813Z,13.47
2023-01-25T16:30:18.692Z,14.23
2023-01-25T16:32:50.017Z,13.50
2023-01-25T16:35:17.986Z,13.47
2023-01-25T16:37:45.922Z,16.63
2023-01-25T16:40:23.406Z,13.80
2023-01-25T16:42:51.441Z,12.90
2023-01-25T16:45:20.280Z,12.97
2023-01-25T16:47:49.366Z,13.87
2023-01-25T16:50:19.697Z,13.57
2023-01-25T16:52:49.903Z,14.40
2023-01-25T16:55:18.591Z,16.70
2023-01-25T16:57:50.843Z,13.77
2023-01-25T17:00:19.615Z,13.50
2023-01-25T17:02:58.717Z,13.13
2023-01-25T17:05:31.947Z,14.23
2023-01-25T17:07:59.739Z,13.53
2023-01-25T17:10:28.793Z,27.23
2023-01-25T17:12:56.416Z,23.67
2023-01-25T17:15:24.098Z,16.97
2023-01-25T17:17:51.758Z,35.23
2023-01-25T17:20:19.431Z,17.00
2023-01-25T17:22:51.032Z,43.47
2023-01-25T17:25:18.812Z,15.90
2023-01-25T17:27:47.041Z,17.10
2023-01-25T17:30:15.409Z,24.63
2023-01-25T17:32:43.025Z,17.57
2023-01-25T17:35:10.773Z,13.60
2023-01-25T17:37:41.041Z,13.60
2023-01-25T17:40:12.378Z,12.37
2023-01-25T17:42:40.313Z,13.33
2023-01-25T17:45:09.308Z,12.70
2023-01-25T17:47:37.185Z,12.37
2023-01-25T17:50:05.127Z,12.30
2023-01-25T17:52:32.760Z,13.93
2023-01-25T17:55:00.469Z,14.63
2023-01-25T17:57:31.555Z,14.70
2023-01-25T17:59:59.352Z,12.47
2023-01-25T18:02:27.041Z,13.87
2023-01-25T18:04:54.763Z,16.70
2023-01-25T18:07:22.420Z,13.60
2023-01-25T18:09:50.109Z,14.43
2023-01-25T18:12:20.526Z,13.90
2023-01-25T18:14:49.697Z,14.13
2023-01-25T18:17:17.362Z,11.63
2023-01-25T18:19:45.896Z,14.47
2023-01-25T18:22:14.681Z,12.13
2023-01-25T18:24:43.994Z,13.10
2023-01-25T18:27:19.688Z,11.33
2023-01-25T18:29:55.417Z,14.20
2023-01-25T18:32:23.076Z,12.77
2023-01-25T18:34:50.875Z,11.60
2023-01-25T18:37:21.698Z,13.70
2023-01-25T18:39:51.214Z,12.87
2023-01-25T18:42:20.068Z,11.33
2023-01-25T18:44:49.258Z,12.00
2023-01-25T18:47:18.938Z,11.93
2023-01-25T18:49:47.367Z,13.70
2023-01-25T18:52:16.548Z,12.33
2023-01-25T18:54:44.510Z,12.97
2023-01-25T18:57:13.193Z,11.20
2023-01-25T18:59:41.241Z,13.93
2023-01-25T19:02:12.510Z,15.30
2023-01-25T19:04:40.329Z,15.60
2023-01-25T19:07:08.420Z,15.47
2023-01-25T19:09:36.179Z,15.40
2023-01-25T19:12:03.949Z,15.43
2023-01-25T19:14:31.721Z,15.60
2023-01-25T19:16:59.433Z,15.73
2023-01-25T19:19:32.213Z,14.93
2023-01-25T19:22:01.544Z,14.27
2023-01-25T19:24:30.938Z,14.63
2023-01-25T19:26:59.459Z,13.90
2023-01-25T19:29:27.683Z,12.07
2023-01-25T19:31:55.612Z,12.27
2023-01-25T19:34:23.338Z,12.03
2023-01-25T19:36:53.865Z,12.53
2023-01-25T19:39:22.002Z,13.13
2023-01-25T19:41:52.495Z,11.77
2023-01-25T19:44:20.639Z,12.47
2023-01-25T19:46:49.061Z,11.30
2023-01-25T19:49:16.823Z,12.10
2023-01-25T19:51:48.852Z,11.40
2023-01-25T19:54:18.887Z,12.43
2023-01-25T19:56:48.459Z,10.90
2023-01-25T19:59:17.610Z,11.83
2023-01-25T20:01:46.229Z,10.53
2023-01-25T20:04:16.359Z,10.47
2023-01-25T20:06:44.880Z,10.13
2023-01-25T20:09:14.222Z,11.10
2023-01-25T20:11:43.597Z,10.23
2023-01-25T20:14:13.422Z,15.60
2023-01-25T20:16:41.807Z,15.37
2023-01-25T20:19:12.353Z,10.60
2023-01-25T20:21:40.263Z,9.93
2023-01-25T20:24:10.375Z,10.43
2023-01-25T20:26:43.052Z,10.57
2023-01-25T20:29:14.006Z,10.87
2023-01-25T20:31:44.546Z,10.63
2023-01-25T20:34:14.879Z,11.57
2023-01-25T20:36:44.416Z,15.07
2023-01-25T20:39:15.604Z,24.67
2023-01-25T20:41:44.275Z,14.50
2023-01-25T20:44:15.667Z,17.67
2023-01-25T20:46:44.486Z,17.53
2023-01-25T20:49:16.489Z,19.70
2023-01-25T20:51:45.793Z,14.67
2023-01-25T20:54:14.457Z,23.50
2023-01-25T20:56:43.169Z,19.67
2023-01-25T20:59:11.332Z,18.20
2023-01-25T21:01:41.154Z,10.20
2023-01-25T21:04:11.853Z,11.47
2023-01-25T21:06:40.391Z,18.57
2023-01-25T21:09:08.509Z,25.03
2023-01-25T21:11:36.838Z,15.30
2023-01-25T21:14:05.840Z,19.60
2023-01-25T21:16:35.416Z,14.80
2023-01-25T21:19:07.935Z,11.50
2023-01-25T21:21:38.480Z,22.40
2023-01-25T21:24:07.863Z,14.17
2023-01-25T21:26:38.612Z,19.33
2023-01-25T21:29:08.063Z,12.53
2023-01-25T21:31:38.319Z,11.60
2023-01-25T21:34:09.308Z,11.37
2023-01-25T21:36:37.368Z,11.40
2023-01-25T21:39:05.867Z,17.70
2023-01-25T21:41:34.617Z,14.50
2023-01-25T21:44:21.057Z,16.97
2023-01-25T21:47:16.254Z,13.60
2023-01-25T21:49:57.125Z,12.93
2023-01-25T21:52:25.633Z,11.40
2023-01-25T21:54:55.622Z,11.93
2023-01-25T21:57:24.369Z,11.73
2023-01-25T21:59:54.171Z,12.20
2023-01-25T22:02:22.630Z,10.53
2023-01-25T22:04:52.511Z,10.60
2023-01-25T22:07:20.866Z,10.27
2023-01-25T22:09:50.650Z,11.27
2023-01-25T22:12:19.057Z,10.77
2023-01-25T22:14:47.725Z,11.67
2023-01-25T22:17:16.227Z,11.60
2023-01-25T22:19:44.884Z,11.87
2023-01-25T22:22:14.558Z,10.33
2023-01-25T22:24:43.030Z,11.57
2023-01-25T22:27:38.456Z,10.63
2023-01-25T22:30:08.412Z,11.07
2023-01-25T22:32:37.068Z,11.00
2023-01-25T22:35:05.969Z,10.13
2023-01-25T22:37:38.296Z,12.07
2023-01-25T22:40:09.616Z,11.93
2023-01-25T22:42:41.026Z,12.53
2023-01-25T22:45:09.807Z,10.37
2023-01-25T22:47:38.294Z,12.20
2023-01-25T22:50:07.616Z,10.40
2023-01-25T22:52:37.055Z,9.23
2023-01-25T22:55:05.631Z,10.00
2023-01-25T22:57:34.037Z,11.57
2023-01-25T23:00:02.549Z,10.47
2023-01-25T23:02:31.010Z,11.20
2023-01-25T23:04:59.478Z,10.87
2023-01-25T23:07:27.538Z,11.60
2023-01-25T23:09:56.969Z,10.70
2023-01-25T23:12:25.148Z,10.30
2023-01-25T23:14:54.457Z,12.40
2023-01-25T23:17:42.456Z,12.00
2023-01-25T23:20:12.927Z,11.97
2023-01-25T23:22:41.612Z,11.60
2023-01-25T23:25:12.445Z,11.87
2023-01-25T23:27:42.009Z,11.77
2023-01-25T23:30:11.613Z,11.90
2023-01-25T23:32:40.055Z,11.33
2023-01-25T23:35:09.154Z,11.07
2023-01-25T23:37:38.944Z,11.57
2023-01-25T23:40:09.301Z,12.87
2023-01-25T23:42:39.839Z,13.97
2023-01-25T23:45:11.899Z,13.60
2023-01-25T23:47:40.644Z,14.23
2023-01-25T23:50:10.404Z,12.90
2023-01-25T23:52:39.619Z,13.47
2023-01-25T23:55:09.325Z,11.80
2023-01-25T23:57:39.775Z,12.17
